Decoded Metar for KRWI (ROCKY MOUNT in NC, USA) (IATA:RWI) | Meteo·Mobile Aviation Weather
aviador You're here:

KRWI Decoded Metar

ROCKY MOUNT in NC, USA
Report Time2018-08-20 17:53:00
UTC Time2018-08-20 18:42:36
Flight Rules vfr VFR
WindVRB at 05 kt
Visibility9999 m
Phenomena:N/A
Clouds:Few 060 Hf
Scattered 070 Hf
Expected CloudBase > 2,800 ft AGL from Temp-Dew spread
CeilingNone
Temp29°C (ISA +14)
Dew Point22°C (66% RH)
Heat Index32.0°C
QNH1017 hPa
Density Alt2,011 ft
Elevation154 ft
Report Wrong Elevation
Raw Report
METAR KRWI 201753Z AUTO VRB05KT 10SM FEW060 SCT070 29/22 A3004 RMK
AO2 SLP172 T02940222 10294 20222 58009=

Extra information for KRWI:More info

Metar Taf Metar & Taf Last 4 Metars F.Rules Stats Wind Profile Meteogram Temp Stats Airport Information Weather charts Add Link Nearby VenuesMetar ALERT Operation Metar Decoded Social comments

AIRNAV info for KRWI